Time;durP1;ratioP1;P1;durP2;ratioP2;P2;SDS_P1;SDS_P2;PMS_P1;PMS_P2;Temp;Humidity;BMP_temperature;BMP_pressure;BME280_temperature;BME280_humidity;BME280_pressure;Samples;Min_cycle;Max_cycle;Signal;HPM_P1;HPM_P2
2023/08/03 00:01:58;;;;;;;3.33;1.88;;;;;;;;;;5058241;28;20029;-76
2023/08/03 00:04:24;;;;;;;7.97;2.28;;;;;;;;;;5045083;28;20086;-76
2023/08/03 00:06:50;;;;;;;3.30;1.70;;;;;;;;;;5058375;28;20040;-76
2023/08/03 00:09:16;;;;;;;2.83;1.70;;;;;;;;;;5058394;28;20056;-76
2023/08/03 00:11:42;;;;;;;4.95;1.92;;;;;;;;;;5058415;28;20033;-76
2023/08/03 00:14:08;;;;;;;6.47;2.03;;;;;;;;;;5057603;28;20040;-77
2023/08/03 00:16:34;;;;;;;7.32;2.13;;;;;;;;;;5050045;28;20033;-76
2023/08/03 00:19:00;;;;;;;5.93;2.00;;;;;;;;;;5038207;28;20544;-76
2023/08/03 00:21:26;;;;;;;6.10;2.30;;;;;;;;;;5038081;28;20512;-76
2023/08/03 00:23:52;;;;;;;6.50;2.00;;;;;;;;;;5038147;28;20032;-76
2023/08/03 00:26:18;;;;;;;6.88;2.28;;;;;;;;;;5036541;28;20036;-76
2023/08/03 00:28:44;;;;;;;4.25;1.90;;;;;;;;;;5036321;28;20495;-76
2023/08/03 00:31:10;;;;;;;6.53;2.03;;;;;;;;;;5055002;28;20033;-76
2023/08/03 00:33:36;;;;;;;3.70;1.52;;;;;;;;;;5054832;28;20084;-76
2023/08/03 00:36:02;;;;;;;5.13;1.90;;;;;;;;;;5055219;28;20079;-76
2023/08/03 00:38:28;;;;;;;2.90;1.60;;;;;;;;;;5054847;28;20021;-76
2023/08/03 00:40:54;;;;;;;5.18;2.20;;;;;;;;;;5054734;28;20100;-76
2023/08/03 00:43:20;;;;;;;4.90;2.13;;;;;;;;;;5054764;28;20095;-76
2023/08/03 00:45:46;;;;;;;4.93;2.03;;;;;;;;;;5054724;28;20660;-75
2023/08/03 00:48:12;;;;;;;3.67;2.30;;;;;;;;;;5054606;28;20104;-75
2023/08/03 00:50:39;;;;;;;4.80;2.15;;;;;;;;;;5054708;28;20104;-75
2023/08/03 00:53:05;;;;;;;4.05;2.22;;;;;;;;;;5054625;28;20407;-75
2023/08/03 00:55:32;;;;;;;5.55;2.10;;;;;;;;;;5054563;28;20424;-75
2023/08/03 00:57:58;;;;;;;5.35;1.98;;;;;;;;;;5054488;28;20017;-75
2023/08/03 01:00:24;;;;;;;3.80;1.92;;;;;;;;;;5054715;28;20021;-75
2023/08/03 01:02:51;;;;;;;6.53;2.10;;;;;;;;;;5054361;28;20035;-75
2023/08/03 01:05:17;;;;;;;3.03;1.95;;;;;;;;;;5054361;28;20472;-75
2023/08/03 01:07:43;;;;;;;3.03;2.20;;;;;;;;;;5054393;28;20029;-75
2023/08/03 01:10:09;;;;;;;3.80;1.67;;;;;;;;;;5054312;28;20033;-75
2023/08/03 01:12:35;;;;;;;6.13;2.03;;;;;;;;;;5054212;28;20088;-75
2023/08/03 01:15:01;;;;;;;2.92;1.80;;;;;;;;;;5053851;28;20045;-75
2023/08/03 01:17:28;;;;;;;6.50;2.00;;;;;;;;;;5054138;28;20071;-75
2023/08/03 01:19:54;;;;;;;4.65;2.10;;;;;;;;;;5054092;28;20040;-75
2023/08/03 01:22:20;;;;;;;4.18;1.92;;;;;;;;;;5053965;28;20029;-75
2023/08/03 01:24:46;;;;;;;5.63;2.15;;;;;;;;;;5053938;28;20059;-75
2023/08/03 01:27:12;;;;;;;3.25;1.83;;;;;;;;;;5053938;28;20126;-75
2023/08/03 01:29:38;;;;;;;6.75;2.05;;;;;;;;;;5053853;28;20100;-75
2023/08/03 01:32:04;;;;;;;3.03;2.20;;;;;;;;;;5038485;28;20527;-75
2023/08/03 01:34:30;;;;;;;4.50;2.17;;;;;;;;;;5033791;28;20393;-75
2023/08/03 01:36:56;;;;;;;5.82;2.10;;;;;;;;;;5033843;28;20049;-76
2023/08/03 01:39:27;;;;;;;4.13;2.20;;;;;;;;;;5032642;28;20064;-75
2023/08/03 01:41:53;;;;;;;3.95;2.50;;;;;;;;;;5036784;28;21493;-75
2023/08/03 01:44:26;;;;;;;5.22;2.63;;;;;;;;;;5053463;28;20495;-75
2023/08/03 01:46:53;;;;;;;3.42;2.53;;;;;;;;;;5053505;28;20104;-75
2023/08/03 01:49:20;;;;;;;6.13;3.55;;;;;;;;;;5053584;28;20060;-75
2023/08/03 01:51:46;;;;;;;5.90;2.60;;;;;;;;;;5053473;28;20123;-75
2023/08/03 01:54:12;;;;;;;4.70;2.40;;;;;;;;;;5053419;28;20151;-75
2023/08/03 01:56:39;;;;;;;5.05;2.58;;;;;;;;;;5053358;28;20045;-75
2023/08/03 01:59:05;;;;;;;4.68;2.85;;;;;;;;;;5053244;28;20476;-75
2023/08/03 02:01:31;;;;;;;6.13;2.70;;;;;;;;;;5053309;28;20017;-75
2023/08/03 02:03:57;;;;;;;5.18;3.35;;;;;;;;;;5042448;28;20505;-75
2023/08/03 02:06:23;;;;;;;6.32;3.03;;;;;;;;;;5050694;28;20029;-75
2023/08/03 02:08:49;;;;;;;5.72;3.00;;;;;;;;;;5053235;28;20021;-75
2023/08/03 02:11:15;;;;;;;7.25;3.20;;;;;;;;;;5053075;28;20021;-75
2023/08/03 02:13:41;;;;;;;8.00;3.67;;;;;;;;;;5052872;28;20036;-75
2023/08/03 02:16:10;;;;;;;8.32;3.35;;;;;;;;;;5053302;28;20044;-75
2023/08/03 02:18:36;;;;;;;10.35;3.33;;;;;;;;;;5053227;28;20017;-75
2023/08/03 02:21:02;;;;;;;7.03;3.45;;;;;;;;;;5052927;28;20067;-75
2023/08/03 02:23:28;;;;;;;8.48;3.28;;;;;;;;;;5052967;28;20475;-75
2023/08/03 02:25:54;;;;;;;10.82;3.75;;;;;;;;;;5052835;28;20108;-75
2023/08/03 02:28:20;;;;;;;7.32;3.25;;;;;;;;;;5052815;28;20184;-76
2023/08/03 02:30:46;;;;;;;8.95;3.55;;;;;;;;;;5052680;28;20112;-76
2023/08/03 02:33:15;;;;;;;10.55;3.17;;;;;;;;;;5052631;28;20104;-76
2023/08/03 02:35:41;;;;;;;5.93;2.47;;;;;;;;;;5052740;28;20166;-76
2023/08/03 02:38:07;;;;;;;14.02;3.40;;;;;;;;;;5052475;28;20115;-75
2023/08/03 02:40:33;;;;;;;7.55;2.95;;;;;;;;;;5052540;28;20517;-75
2023/08/03 02:42:59;;;;;;;11.40;2.80;;;;;;;;;;5042271;28;20371;-76
2023/08/03 02:45:25;;;;;;;7.15;2.88;;;;;;;;;;5050157;28;20051;-76
2023/08/03 02:47:51;;;;;;;10.35;3.10;;;;;;;;;;5032588;28;20400;-76
2023/08/03 02:50:18;;;;;;;12.45;2.70;;;;;;;;;;5038912;28;20095;-76
2023/08/03 02:52:44;;;;;;;10.43;3.17;;;;;;;;;;5052276;28;20037;-76
2023/08/03 02:55:10;;;;;;;7.60;2.90;;;;;;;;;;5052345;28;20024;-76
2023/08/03 02:57:36;;;;;;;7.70;2.53;;;;;;;;;;5052404;28;20055;-76
2023/08/03 03:00:02;;;;;;;13.57;2.80;;;;;;;;;;5048661;28;20025;-76
2023/08/03 03:02:27;;;;;;;6.97;2.40;;;;;;;;;;5052255;28;20108;-76
2023/08/03 03:04:54;;;;;;;10.68;1.90;;;;;;;;;;5052267;28;20021;-75
2023/08/03 03:07:19;;;;;;;7.47;1.67;;;;;;;;;;5052237;28;20044;-76
2023/08/03 03:09:45;;;;;;;8.63;1.95;;;;;;;;;;5052135;28;20025;-76
2023/08/03 03:12:11;;;;;;;4.45;1.80;;;;;;;;;;5052073;28;20439;-76
2023/08/03 03:14:37;;;;;;;5.03;2.08;;;;;;;;;;5050915;28;20049;-76
2023/08/03 03:17:04;;;;;;;5.15;2.20;;;;;;;;;;5052425;28;20017;-76
2023/08/03 03:19:30;;;;;;;4.80;1.90;;;;;;;;;;5052166;28;20060;-76
2023/08/03 03:21:56;;;;;;;10.57;3.53;;;;;;;;;;5052092;28;20029;-76
2023/08/03 03:24:22;;;;;;;13.25;2.00;;;;;;;;;;5051985;28;20078;-75
2023/08/03 03:26:48;;;;;;;7.38;1.50;;;;;;;;;;5052131;28;20028;-75
2023/08/03 03:29:14;;;;;;;3.28;1.27;;;;;;;;;;5052110;28;20047;-75
2023/08/03 03:31:40;;;;;;;5.03;1.48;;;;;;;;;;5052078;28;20036;-75
2023/08/03 03:34:06;;;;;;;3.80;1.40;;;;;;;;;;5051912;28;20036;-75
2023/08/03 03:36:33;;;;;;;8.35;1.63;;;;;;;;;;5049071;28;20112;-75
2023/08/03 03:38:59;;;;;;;9.32;1.50;;;;;;;;;;5032305;28;20021;-75
2023/08/03 03:41:25;;;;;;;5.90;1.77;;;;;;;;;;5031861;28;20022;-75
2023/08/03 03:43:51;;;;;;;6.90;1.73;;;;;;;;;;5041937;28;20078;-75
2023/08/03 03:46:17;;;;;;;3.38;1.50;;;;;;;;;;5051775;28;20025;-75
2023/08/03 03:48:43;;;;;;;4.57;1.60;;;;;;;;;;5051862;28;20111;-75
2023/08/03 03:51:09;;;;;;;9.73;2.00;;;;;;;;;;5038103;28;20030;-75
2023/08/03 03:53:35;;;;;;;8.82;1.95;;;;;;;;;;5052042;28;20063;-75
2023/08/03 03:56:02;;;;;;;5.55;1.77;;;;;;;;;;5051657;28;20064;-75
2023/08/03 03:58:28;;;;;;;6.32;1.77;;;;;;;;;;5051907;28;20029;-75
2023/08/03 04:00:54;;;;;;;5.50;1.80;;;;;;;;;;5051343;28;20025;-75
2023/08/03 04:03:20;;;;;;;7.25;1.60;;;;;;;;;;5055135;28;20032;-75
2023/08/03 04:05:46;;;;;;;9.25;1.65;;;;;;;;;;5055420;28;20027;-75
2023/08/03 04:08:12;;;;;;;4.03;1.70;;;;;;;;;;5055431;28;20025;-75
2023/08/03 04:10:39;;;;;;;5.65;1.60;;;;;;;;;;5055446;28;20017;-75
2023/08/03 04:13:05;;;;;;;10.02;2.10;;;;;;;;;;5055536;28;20036;-75
2023/08/03 04:15:31;;;;;;;7.60;2.50;;;;;;;;;;5054793;28;20049;-75
2023/08/03 04:17:57;;;;;;;8.02;2.55;;;;;;;;;;5055268;28;20025;-75
2023/08/03 04:20:23;;;;;;;10.88;2.20;;;;;;;;;;5055258;28;20029;-75
2023/08/03 04:22:49;;;;;;;9.90;2.80;;;;;;;;;;5055248;28;20503;-75
2023/08/03 04:25:15;;;;;;;3.75;2.30;;;;;;;;;;5055129;28;20074;-74
2023/08/03 04:27:41;;;;;;;8.30;2.67;;;;;;;;;;5055069;28;20036;-75
2023/08/03 04:30:10;;;;;;;6.60;2.78;;;;;;;;;;5054838;28;20621;-76
2023/08/03 04:32:36;;;;;;;6.68;2.88;;;;;;;;;;5034802;28;20380;-75
2023/08/03 04:35:02;;;;;;;6.43;3.03;;;;;;;;;;5035195;28;20732;-75
2023/08/03 04:37:28;;;;;;;9.48;2.80;;;;;;;;;;5054617;28;20021;-75
2023/08/03 04:39:54;;;;;;;8.73;2.60;;;;;;;;;;5047042;28;20039;-76
2023/08/03 04:42:20;;;;;;;9.40;2.90;;;;;;;;;;5034629;28;20021;-76
2023/08/03 04:44:46;;;;;;;6.07;2.90;;;;;;;;;;5048575;28;20021;-75
2023/08/03 04:47:13;;;;;;;7.65;2.90;;;;;;;;;;5054643;28;20598;-76
2023/08/03 04:49:39;;;;;;;9.63;2.53;;;;;;;;;;5054886;28;20013;-76
2023/08/03 04:52:05;;;;;;;12.23;2.88;;;;;;;;;;5054537;28;20017;-76
2023/08/03 04:54:31;;;;;;;9.52;2.92;;;;;;;;;;5054316;28;20029;-76
2023/08/03 04:56:57;;;;;;;11.05;3.92;;;;;;;;;;5054400;28;20100;-76
2023/08/03 04:59:23;;;;;;;8.02;4.10;;;;;;;;;;5054714;28;20086;-76
2023/08/03 05:01:49;;;;;;;9.35;3.67;;;;;;;;;;5054415;28;20036;-76
2023/08/03 05:04:15;;;;;;;6.95;4.38;;;;;;;;;;5054431;28;20032;-76
2023/08/03 05:06:41;;;;;;;6.88;4.07;;;;;;;;;;5054379;28;20029;-76
2023/08/03 05:09:07;;;;;;;7.82;3.88;;;;;;;;;;5054387;28;20028;-76
2023/08/03 05:11:33;;;;;;;11.48;4.32;;;;;;;;;;5054183;28;20025;-76
2023/08/03 05:13:59;;;;;;;7.10;4.47;;;;;;;;;;5053864;28;20040;-76
2023/08/03 05:16:26;;;;;;;7.35;4.35;;;;;;;;;;5053882;28;20037;-76
2023/08/03 05:18:52;;;;;;;8.70;5.05;;;;;;;;;;5054301;28;20021;-76
2023/08/03 05:21:18;;;;;;;8.27;4.90;;;;;;;;;;5054136;28;20017;-76
2023/08/03 05:23:48;;;;;;;6.78;4.35;;;;;;;;;;5054066;28;20154;-76
2023/08/03 05:26:14;;;;;;;7.13;4.40;;;;;;;;;;5053992;28;20029;-76
2023/08/03 05:28:40;;;;;;;6.70;3.83;;;;;;;;;;5053810;28;20286;-76
2023/08/03 05:31:06;;;;;;;6.00;3.88;;;;;;;;;;5054061;28;20021;-76
2023/08/03 05:33:36;;;;;;;6.88;3.22;;;;;;;;;;5053803;28;20039;-76
2023/08/03 05:36:02;;;;;;;6.65;3.45;;;;;;;;;;5053833;28;20024;-76
2023/08/03 05:38:28;;;;;;;5.30;2.60;;;;;;;;;;5053727;28;20029;-76
2023/08/03 05:40:55;;;;;;;5.43;2.60;;;;;;;;;;5053744;28;20032;-76
2023/08/03 05:43:24;;;;;;;2.60;2.40;;;;;;;;;;5053287;28;20116;-76
2023/08/03 05:45:53;;;;;;;7.90;2.53;;;;;;;;;;5052352;28;20032;-76
2023/08/03 05:48:20;;;;;;;9.80;1.63;;;;;;;;;;5043293;28;20053;-77
2023/08/03 05:50:50;;;;;;;3.17;1.80;;;;;;;;;;5033667;28;20021;-77
2023/08/03 05:53:16;;;;;;;2.78;1.40;;;;;;;;;;5037177;28;20060;-76
2023/08/03 05:55:43;;;;;;;2.33;1.10;;;;;;;;;;5053469;28;20033;-76
2023/08/03 05:58:11;;;;;;;3.45;0.95;;;;;;;;;;5049502;28;20030;-76
2023/08/03 06:00:37;;;;;;;5.15;1.20;;;;;;;;;;5044587;28;20391;-77
2023/08/03 06:03:03;;;;;;;2.33;1.05;;;;;;;;;;5053281;28;20020;-77
2023/08/03 06:05:38;;;;;;;2.22;0.70;;;;;;;;;;5053365;28;20053;-77
2023/08/03 06:08:18;;;;;;;2.40;1.02;;;;;;;;;;5034731;28;20056;-77
2023/08/03 06:10:45;;;;;;;3.90;1.05;;;;;;;;;;5040335;28;20040;-76
2023/08/03 06:13:12;;;;;;;2.72;0.88;;;;;;;;;;5052700;28;20075;-76
2023/08/03 06:15:39;;;;;;;2.33;0.82;;;;;;;;;;5033830;28;20099;-76
2023/08/03 06:18:06;;;;;;;2.28;0.85;;;;;;;;;;5033835;28;20028;-77
2023/08/03 06:20:32;;;;;;;3.30;1.00;;;;;;;;;;5033298;28;20072;-76
2023/08/03 06:22:58;;;;;;;2.85;0.90;;;;;;;;;;5034909;28;20040;-76
2023/08/03 06:25:24;;;;;;;2.05;0.73;;;;;;;;;;5052203;28;20033;-76
2023/08/03 06:27:50;;;;;;;1.40;0.70;;;;;;;;;;5052862;28;20033;-76
2023/08/03 06:30:17;;;;;;;6.57;1.35;;;;;;;;;;5053142;28;20052;-76
2023/08/03 06:32:43;;;;;;;4.22;1.05;;;;;;;;;;5038920;28;20030;-76
2023/08/03 06:35:42;;;;;;;2.08;0.70;;;;;;;;;;5039907;28;20013;-76
2023/08/03 06:38:14;;;;;;;2.50;0.70;;;;;;;;;;5040148;28;20059;-76
2023/08/03 06:40:41;;;;;;;1.85;0.73;;;;;;;;;;5052589;28;20021;-76
2023/08/03 06:43:08;;;;;;;2.50;0.80;;;;;;;;;;5052424;28;20533;-77
2023/08/03 06:45:34;;;;;;;2.65;0.70;;;;;;;;;;5052592;28;20056;-75
2023/08/03 06:48:01;;;;;;;2.45;0.90;;;;;;;;;;5052782;28;20444;-77
2023/08/03 06:50:29;;;;;;;2.95;0.73;;;;;;;;;;5052539;28;20075;-76
2023/08/03 06:52:55;;;;;;;1.77;0.70;;;;;;;;;;5048469;28;20044;-78
2023/08/03 06:55:21;;;;;;;5.13;0.90;;;;;;;;;;5054495;28;20025;-75
2023/08/03 06:57:47;;;;;;;3.58;1.00;;;;;;;;;;5052700;28;20032;-75
2023/08/03 07:00:14;;;;;;;4.25;0.88;;;;;;;;;;5052139;28;20046;-76
2023/08/03 07:02:40;;;;;;;1.10;0.80;;;;;;;;;;5052194;28;20028;-76
2023/08/03 07:05:06;;;;;;;2.40;0.68;;;;;;;;;;5052325;28;20029;-76
2023/08/03 07:07:32;;;;;;;3.03;1.00;;;;;;;;;;5052110;28;20029;-76
2023/08/03 07:10:01;;;;;;;4.43;1.00;;;;;;;;;;5052110;28;20023;-76
2023/08/03 07:12:28;;;;;;;3.38;0.80;;;;;;;;;;5052379;28;20365;-76
2023/08/03 07:14:54;;;;;;;2.97;1.05;;;;;;;;;;5052010;28;20049;-76
2023/08/03 07:17:21;;;;;;;5.28;1.40;;;;;;;;;;5052133;28;20025;-76
2023/08/03 07:19:50;;;;;;;5.72;1.10;;;;;;;;;;5052187;28;20436;-76
2023/08/03 07:22:17;;;;;;;;;;;;;;;;;;5052976;28;20066;-76
2023/08/03 07:24:43;;;;;;;5.57;1.25;;;;;;;;;;5052071;28;19905;-76
2023/08/03 07:27:09;;;;;;;5.10;1.17;;;;;;;;;;5037009;28;20029;-76
2023/08/03 07:29:35;;;;;;;4.03;1.00;;;;;;;;;;5052680;28;20036;-76
2023/08/03 07:32:01;;;;;;;7.20;1.25;;;;;;;;;;5051961;28;20025;-76
2023/08/03 07:34:27;;;;;;;4.55;1.17;;;;;;;;;;5051928;28;20522;-76
2023/08/03 07:36:54;;;;;;;4.60;1.38;;;;;;;;;;5054725;28;20505;-76
2023/08/03 07:39:20;;;;;;;6.60;1.30;;;;;;;;;;5055931;28;20146;-76
2023/08/03 07:41:46;;;;;;;6.80;1.33;;;;;;;;;;5055950;28;20060;-76
2023/08/03 07:44:12;;;;;;;4.72;1.10;;;;;;;;;;5055783;28;20068;-76
2023/08/03 07:46:38;;;;;;;3.55;1.05;;;;;;;;;;5055654;28;20159;-76
2023/08/03 07:49:04;;;;;;;4.15;1.25;;;;;;;;;;5055782;28;20029;-77
2023/08/03 07:51:30;;;;;;;4.88;1.13;;;;;;;;;;5055673;28;20025;-77
2023/08/03 07:53:56;;;;;;;7.15;1.58;;;;;;;;;;5055410;28;20037;-77
2023/08/03 07:56:23;;;;;;;2.58;1.35;;;;;;;;;;5038761;28;20496;-76
2023/08/03 07:58:49;;;;;;;4.60;1.45;;;;;;;;;;5035623;28;20018;-76
2023/08/03 08:01:16;;;;;;;3.95;1.10;;;;;;;;;;5035606;28;20079;-76
2023/08/03 08:03:42;;;;;;;3.67;1.40;;;;;;;;;;5035475;28;20112;-76
2023/08/03 08:06:10;;;;;;;6.03;1.20;;;;;;;;;;5052013;28;20032;-76
2023/08/03 08:08:37;;;;;;;1.58;0.70;;;;;;;;;;5055584;28;20025;-76
2023/08/03 08:11:03;;;;;;;4.05;1.30;;;;;;;;;;5055486;28;20025;-77
2023/08/03 08:13:29;;;;;;;3.15;1.20;;;;;;;;;;5055391;28;20108;-76
2023/08/03 08:16:05;;;;;;;2.83;0.90;;;;;;;;;;5054881;28;20063;-77
2023/08/03 08:18:32;;;;;;;5.50;1.25;;;;;;;;;;5055176;28;20033;-77
2023/08/03 08:20:58;;;;;;;5.07;1.23;;;;;;;;;;5055200;28;20017;-77
2023/08/03 08:23:24;;;;;;;2.50;1.15;;;;;;;;;;5055178;28;20021;-76
2023/08/03 08:25:50;;;;;;;6.22;1.20;;;;;;;;;;5055140;28;20377;-77
2023/08/03 08:28:16;;;;;;;6.65;1.40;;;;;;;;;;5055100;28;20107;-77
2023/08/03 08:30:44;;;;;;;5.97;1.35;;;;;;;;;;5054876;28;20082;-77
2023/08/03 08:33:10;;;;;;;4.00;1.05;;;;;;;;;;5054889;28;20051;-77
2023/08/03 08:35:36;;;;;;;4.72;1.23;;;;;;;;;;5055271;28;20025;-77
2023/08/03 08:38:04;;;;;;;4.88;1.40;;;;;;;;;;5054867;28;20065;-76
2023/08/03 08:40:30;;;;;;;3.90;1.40;;;;;;;;;;5055121;28;20032;-77
2023/08/03 08:42:57;;;;;;;5.10;1.30;;;;;;;;;;5054781;28;20029;-77
2023/08/03 08:45:23;;;;;;;1.75;0.70;;;;;;;;;;5054598;28;20096;-76
2023/08/03 08:47:49;;;;;;;3.58;1.05;;;;;;;;;;5053812;28;20101;-76
2023/08/03 08:50:16;;;;;;;5.07;1.55;;;;;;;;;;5054568;28;20021;-76
2023/08/03 08:52:43;;;;;;;4.13;0.80;;;;;;;;;;5054306;28;20032;-76
2023/08/03 08:55:23;;;;;;;2.33;0.80;;;;;;;;;;5054394;28;20029;-76
2023/08/03 08:57:50;;;;;;;4.25;0.80;;;;;;;;;;5054398;28;20515;-75
2023/08/03 09:00:16;;;;;;;2.65;0.63;;;;;;;;;;5054454;28;20074;-76
2023/08/03 09:02:42;;;;;;;5.38;0.80;;;;;;;;;;5054201;28;20060;-76
2023/08/03 09:05:09;;;;;;;3.28;0.70;;;;;;;;;;5054341;28;20025;-76
2023/08/03 09:07:36;;;;;;;4.40;0.90;;;;;;;;;;5054401;28;20444;-76
2023/08/03 09:10:02;;;;;;;4.50;0.90;;;;;;;;;;5054500;28;20049;-75
2023/08/03 09:12:29;;;;;;;3.15;0.80;;;;;;;;;;5054162;28;20071;-75
2023/08/03 09:14:55;;;;;;;2.85;0.60;;;;;;;;;;5053791;28;20052;-76
2023/08/03 09:17:22;;;;;;;2.00;0.60;;;;;;;;;;5054032;28;20464;-75
2023/08/03 09:19:48;;;;;;;3.22;0.60;;;;;;;;;;5054003;28;20064;-75
2023/08/03 09:22:18;;;;;;;4.53;1.00;;;;;;;;;;5054367;28;20028;-75
2023/08/03 09:24:47;;;;;;;4.30;1.10;;;;;;;;;;5054068;28;20379;-75
2023/08/03 09:27:17;;;;;;;4.28;0.82;;;;;;;;;;5053937;28;20147;-75
2023/08/03 09:29:43;;;;;;;;;;;;;;;;;;5054329;28;20108;-75
2023/08/03 09:32:09;;;;;;;2.60;0.85;;;;;;;;;;5053862;28;19985;-75
2023/08/03 09:34:44;;;;;;;6.00;1.17;;;;;;;;;;5053633;28;20052;-75
2023/08/03 09:37:11;;;;;;;3.75;1.13;;;;;;;;;;5053970;28;20487;-75
2023/08/03 09:39:38;;;;;;;7.25;1.45;;;;;;;;;;5053844;28;20043;-75
2023/08/03 09:42:06;;;;;;;4.65;1.40;;;;;;;;;;5053761;28;20021;-75
2023/08/03 09:44:36;;;;;;;6.32;1.48;;;;;;;;;;5053400;28;20051;-75
2023/08/03 09:47:02;;;;;;;8.63;1.70;;;;;;;;;;5053750;28;20021;-75
2023/08/03 09:49:28;;;;;;;8.32;1.50;;;;;;;;;;5053502;28;20404;-76
2023/08/03 09:51:57;;;;;;;9.10;1.80;;;;;;;;;;5053476;28;20468;-75
2023/08/03 09:54:25;;;;;;;7.90;1.92;;;;;;;;;;5053391;28;20060;-75
2023/08/03 09:56:54;;;;;;;6.85;1.70;;;;;;;;;;5053651;28;20036;-76
2023/08/03 09:59:27;;;;;;;8.40;1.90;;;;;;;;;;5052469;28;20021;-76
2023/08/03 10:01:58;;;;;;;8.10;1.83;;;;;;;;;;5053203;28;20143;-76
2023/08/03 10:04:25;;;;;;;5.85;1.17;;;;;;;;;;5053170;28;20017;-76
2023/08/03 10:06:52;;;;;;;5.85;1.52;;;;;;;;;;5052866;28;20118;-76
2023/08/03 10:09:21;;;;;;;5.18;1.40;;;;;;;;;;5052760;28;20028;-75
2023/08/03 10:11:48;;;;;;;3.92;0.95;;;;;;;;;;5052939;28;20036;-76
2023/08/03 10:14:18;;;;;;;4.63;0.82;;;;;;;;;;5052818;28;20391;-75
2023/08/03 10:16:44;;;;;;;3.15;0.77;;;;;;;;;;5052677;28;20047;-76
2023/08/03 10:19:11;;;;;;;4.43;0.77;;;;;;;;;;5053014;28;20035;-76
2023/08/03 10:21:37;;;;;;;3.42;0.80;;;;;;;;;;5052796;28;20021;-76
2023/08/03 10:24:08;;;;;;;5.05;0.75;;;;;;;;;;5053163;28;20029;-76
2023/08/03 10:26:34;;;;;;;5.70;1.92;;;;;;;;;;5052862;28;20082;-75
2023/08/03 10:29:00;;;;;;;2.17;0.93;;;;;;;;;;5052691;28;20102;-76
2023/08/03 10:31:26;;;;;;;3.40;0.77;;;;;;;;;;5052645;28;20072;-75
2023/08/03 10:33:52;;;;;;;3.53;0.90;;;;;;;;;;5052558;28;20433;-76
2023/08/03 10:36:31;;;;;;;3.70;0.60;;;;;;;;;;5052921;28;20031;-76
2023/08/03 10:39:01;;;;;;;2.88;0.77;;;;;;;;;;5052969;28;20029;-76
2023/08/03 10:41:27;;;;;;;2.50;1.02;;;;;;;;;;5052474;28;20476;-75
2023/08/03 10:44:09;;;;;;;3.85;0.60;;;;;;;;;;5052812;28;20033;-76
2023/08/03 10:46:44;;;;;;;4.43;1.15;;;;;;;;;;5052723;28;20027;-76
2023/08/03 10:49:22;;;;;;;3.58;1.05;;;;;;;;;;5052452;28;20029;-76
2023/08/03 10:52:07;;;;;;;3.60;1.00;;;;;;;;;;5048574;28;20019;-75
2023/08/03 10:54:33;;;;;;;5.47;1.58;;;;;;;;;;5052299;28;20036;-76
2023/08/03 10:57:04;;;;;;;5.55;1.27;;;;;;;;;;5052277;28;20391;-75
2023/08/03 10:59:36;;;;;;;5.38;1.13;;;;;;;;;;5051233;28;20423;-76
2023/08/03 11:02:20;;;;;;;3.72;1.00;;;;;;;;;;5052530;28;20059;-76
2023/08/03 11:04:47;;;;;;;6.60;1.25;;;;;;;;;;5052509;28;20017;-76
2023/08/03 11:07:15;;;;;;;3.40;1.05;;;;;;;;;;5052112;28;20036;-75
2023/08/03 11:09:41;;;;;;;4.88;1.10;;;;;;;;;;5052088;28;20056;-75
2023/08/03 11:12:08;;;;;;;9.20;1.63;;;;;;;;;;5051847;28;20032;-75
2023/08/03 11:14:35;;;;;;;6.72;0.90;;;;;;;;;;5051687;28;20040;-76
2023/08/03 11:17:01;;;;;;;3.47;0.63;;;;;;;;;;5052250;28;20017;-76
2023/08/03 11:19:33;;;;;;;5.72;1.35;;;;;;;;;;5051947;28;20496;-75
2023/08/03 11:22:00;;;;;;;3.00;0.80;;;;;;;;;;5052114;28;20040;-75
2023/08/03 11:24:32;;;;;;;6.75;1.00;;;;;;;;;;5031972;28;20036;-75
2023/08/03 11:26:59;;;;;;;3.70;1.10;;;;;;;;;;5032121;28;20036;-75
2023/08/03 11:29:25;;;;;;;2.72;0.90;;;;;;;;;;5032132;28;20029;-75
2023/08/03 11:31:52;;;;;;;2.25;0.90;;;;;;;;;;5032037;28;20026;-75
2023/08/03 11:34:18;;;;;;;2.10;0.73;;;;;;;;;;5031980;28;20029;-75
2023/08/03 11:36:48;;;;;;;1.98;1.13;;;;;;;;;;5032187;28;20461;-75
2023/08/03 11:39:14;;;;;;;;;;;;;;;;;;5032452;28;20057;-75
2023/08/03 11:41:41;;;;;;;2.53;0.85;;;;;;;;;;5038018;28;19904;-75
2023/08/03 11:44:07;;;;;;;1.73;0.95;;;;;;;;;;5051840;28;20033;-75
2023/08/03 11:46:33;;;;;;;2.13;0.85;;;;;;;;;;5051795;28;20107;-75
2023/08/03 11:48:59;;;;;;;3.60;1.50;;;;;;;;;;5051755;28;20421;-75
2023/08/03 11:51:36;;;;;;;6.20;1.48;;;;;;;;;;5051743;28;20714;-75
2023/08/03 11:54:12;;;;;;;5.13;1.40;;;;;;;;;;5051588;28;20523;-75
2023/08/03 11:56:39;;;;;;;4.13;1.55;;;;;;;;;;5051645;28;20100;-76
2023/08/03 11:59:08;;;;;;;2.42;1.40;;;;;;;;;;5051616;28;20040;-75
2023/08/03 12:01:42;;;;;;;6.90;1.80;;;;;;;;;;5046785;28;20048;-75
2023/08/03 12:04:09;;;;;;;4.30;1.33;;;;;;;;;;5031816;28;20407;-75
2023/08/03 12:07:02;;;;;;;5.20;1.70;;;;;;;;;;5031836;28;20079;-76
2023/08/03 12:09:36;;;;;;;3.88;1.23;;;;;;;;;;5029629;28;20487;-75
2023/08/03 12:12:06;;;;;;;5.15;1.67;;;;;;;;;;5031692;28;20048;-75
2023/08/03 12:14:33;;;;;;;6.85;1.10;;;;;;;;;;5031182;28;20038;-76
2023/08/03 12:16:59;;;;;;;6.88;1.88;;;;;;;;;;5043693;28;20025;-76
2023/08/03 12:19:29;;;;;;;4.20;1.20;;;;;;;;;;5051360;28;20025;-75
2023/08/03 12:21:55;;;;;;;5.78;1.85;;;;;;;;;;5051523;28;20021;-76
2023/08/03 12:24:21;;;;;;;3.50;1.23;;;;;;;;;;5054722;28;20027;-76
2023/08/03 12:26:47;;;;;;;9.35;2.63;;;;;;;;;;5055228;28;20067;-75
2023/08/03 12:29:13;;;;;;;8.10;2.40;;;;;;;;;;5055181;28;20635;-78
2023/08/03 12:31:39;;;;;;;6.82;1.88;;;;;;;;;;5053476;28;20052;-76
2023/08/03 12:34:06;;;;;;;5.57;2.13;;;;;;;;;;5054729;28;20064;-76
2023/08/03 12:36:32;;;;;;;6.30;2.47;;;;;;;;;;5055029;28;20029;-76
2023/08/03 12:38:57;;;;;;;7.40;2.17;;;;;;;;;;5054802;28;20150;-75
2023/08/03 12:41:23;;;;;;;3.38;1.73;;;;;;;;;;5054937;28;20376;-76
2023/08/03 12:43:50;;;;;;;10.80;2.10;;;;;;;;;;5054789;28;20044;-76
2023/08/03 12:46:17;;;;;;;10.93;2.33;;;;;;;;;;5055276;28;20021;-76
2023/08/03 12:48:42;;;;;;;7.40;2.30;;;;;;;;;;5035013;28;20040;-76
2023/08/03 12:51:09;;;;;;;12.57;2.28;;;;;;;;;;5034969;28;20457;-75
2023/08/03 12:53:38;;;;;;;10.80;2.25;;;;;;;;;;5041081;28;20033;-76
2023/08/03 12:56:04;;;;;;;6.60;2.30;;;;;;;;;;5054856;28;20434;-76
2023/08/03 12:58:31;;;;;;;6.15;1.92;;;;;;;;;;5054544;28;20456;-76
2023/08/03 13:00:57;;;;;;;4.95;2.13;;;;;;;;;;5054596;28;20047;-76
2023/08/03 13:03:23;;;;;;;7.80;2.00;;;;;;;;;;5054331;28;20385;-76
2023/08/03 13:05:49;;;;;;;7.80;2.10;;;;;;;;;;5040988;28;20029;-76
2023/08/03 13:08:18;;;;;;;7.03;1.77;;;;;;;;;;5054258;28;20040;-76
2023/08/03 13:10:45;;;;;;;4.28;1.73;;;;;;;;;;5052751;28;20104;-76
2023/08/03 13:13:11;;;;;;;7.25;1.92;;;;;;;;;;5054178;28;20031;-76
2023/08/03 13:15:38;;;;;;;8.50;2.08;;;;;;;;;;5053914;28;20140;-76
2023/08/03 13:18:04;;;;;;;9.82;2.20;;;;;;;;;;5054149;28;20021;-75
2023/08/03 13:20:30;;;;;;;6.13;1.55;;;;;;;;;;5053891;28;20021;-76
2023/08/03 13:22:56;;;;;;;6.30;1.92;;;;;;;;;;5053997;28;20027;-76
2023/08/03 13:25:22;;;;;;;7.53;1.95;;;;;;;;;;5054186;28;20103;-76
2023/08/03 13:27:48;;;;;;;5.03;1.75;;;;;;;;;;5054235;28;20033;-76
2023/08/03 13:30:16;;;;;;;6.63;2.08;;;;;;;;;;5053752;28;20028;-76
2023/08/03 13:32:44;;;;;;;3.05;1.00;;;;;;;;;;5053733;28;20033;-76
2023/08/03 13:35:10;;;;;;;7.22;1.80;;;;;;;;;;5053243;28;20380;-76
2023/08/03 13:37:37;;;;;;;8.60;2.28;;;;;;;;;;5053732;28;20036;-75
2023/08/03 13:40:03;;;;;;;10.70;2.00;;;;;;;;;;5053419;28;20036;-76
2023/08/03 13:42:29;;;;;;;12.23;2.40;;;;;;;;;;5052082;28;20456;-76
2023/08/03 13:44:55;;;;;;;10.10;2.80;;;;;;;;;;5053741;28;20078;-76
2023/08/03 13:47:22;;;;;;;10.43;2.17;;;;;;;;;;5052869;28;20104;-76
2023/08/03 13:49:48;;;;;;;5.53;1.63;;;;;;;;;;5052710;28;20049;-76
2023/08/03 13:52:14;;;;;;;3.83;1.50;;;;;;;;;;5052416;28;20487;-76
2023/08/03 13:54:40;;;;;;;3.30;1.50;;;;;;;;;;5052529;28;20037;-76
2023/08/03 13:57:06;;;;;;;8.43;2.10;;;;;;;;;;5053014;28;20371;-76
2023/08/03 13:59:32;;;;;;;3.65;1.75;;;;;;;;;;5053436;28;20037;-76
2023/08/03 14:01:58;;;;;;;4.28;1.60;;;;;;;;;;5053359;28;20032;-76
2023/08/03 14:04:29;;;;;;;8.23;1.77;;;;;;;;;;5051960;28;20039;-76
2023/08/03 14:06:54;;;;;;;4.60;1.55;;;;;;;;;;5053306;28;20028;-76
2023/08/03 14:09:20;;;;;;;5.40;2.03;;;;;;;;;;5053207;28;20021;-76
2023/08/03 14:11:47;;;;;;;8.52;2.00;;;;;;;;;;5053098;28;20082;-75
2023/08/03 14:14:13;;;;;;;5.82;1.70;;;;;;;;;;5053369;28;20107;-76
2023/08/03 14:16:40;;;;;;;9.90;2.75;;;;;;;;;;5051361;28;20040;-76
2023/08/03 14:19:06;;;;;;;7.90;2.03;;;;;;;;;;5053157;28;20025;-76
2023/08/03 14:21:32;;;;;;;3.13;1.10;;;;;;;;;;5050844;28;20029;-75
2023/08/03 14:23:58;;;;;;;7.40;1.85;;;;;;;;;;5033294;28;20041;-76
2023/08/03 14:26:26;;;;;;;10.98;2.42;;;;;;;;;;5032936;28;20060;-75
2023/08/03 14:28:52;;;;;;;8.05;1.85;;;;;;;;;;5033214;28;20113;-76
2023/08/03 14:31:19;;;;;;;4.38;1.58;;;;;;;;;;5032853;28;20100;-76
2023/08/03 14:33:44;;;;;;;14.70;2.35;;;;;;;;;;5033026;28;20061;-76
2023/08/03 14:36:11;;;;;;;2.92;1.00;;;;;;;;;;5032855;28;20029;-76
2023/08/03 14:38:37;;;;;;;4.05;1.20;;;;;;;;;;5033059;28;20512;-76
2023/08/03 14:41:03;;;;;;;2.47;1.25;;;;;;;;;;5032671;28;20109;-76
2023/08/03 14:43:29;;;;;;;2.95;1.38;;;;;;;;;;5032704;28;20033;-76